createdAt,value
2022-11-14T00:02:43.502Z,17.92
2022-11-14T00:05:29.709Z,18.15
2022-11-14T00:08:20.967Z,17.85
2022-11-14T00:11:06.851Z,17.92
2022-11-14T00:13:53.029Z,17.65
2022-11-14T00:16:40.065Z,18.23
2022-11-14T00:19:25.826Z,18.73
2022-11-14T00:22:11.993Z,18.00
2022-11-14T00:24:58.119Z,17.02
2022-11-14T00:27:43.952Z,18.70
2022-11-14T00:30:30.281Z,19.05
2022-11-14T00:33:20.690Z,19.38
2022-11-14T00:36:07.656Z,19.85
2022-11-14T00:38:55.226Z,21.02
2022-11-14T00:41:41.849Z,23.10
2022-11-14T00:44:27.521Z,23.60
2022-11-14T00:47:13.657Z,26.55
2022-11-14T00:49:59.594Z,25.77
2022-11-14T00:52:45.661Z,28.02
2022-11-14T00:55:31.691Z,29.67
2022-11-14T00:58:17.393Z,29.80
2022-11-14T01:01:03.164Z,31.95
2022-11-14T01:03:52.687Z,31.60
2022-11-14T01:06:38.546Z,31.70
2022-11-14T01:09:24.555Z,31.10
2022-11-14T01:12:10.448Z,32.50
2022-11-14T01:14:56.506Z,32.40
2022-11-14T01:17:42.638Z,31.58
2022-11-14T01:20:28.495Z,32.53
2022-11-14T01:23:16.328Z,30.30
2022-11-14T01:26:07.875Z,29.75
2022-11-14T01:28:54.136Z,32.00
2022-11-14T01:31:39.907Z,30.52
2022-11-14T01:34:26.819Z,30.25
2022-11-14T01:37:12.848Z,31.02
2022-11-14T01:39:58.620Z,31.25
2022-11-14T01:43:19.452Z,30.70
2022-11-14T01:46:30.886Z,30.30
2022-11-14T01:49:16.664Z,29.75
2022-11-14T01:52:06.791Z,30.75
2022-11-14T01:54:55.636Z,31.25
2022-11-14T01:57:46.578Z,28.58
2022-11-14T02:00:32.348Z,28.63
2022-11-14T02:03:19.232Z,29.75
2022-11-14T02:06:06.880Z,28.55
2022-11-14T02:08:54.108Z,29.67
2022-11-14T02:11:46.329Z,29.95
2022-11-14T02:14:35.233Z,30.52
2022-11-14T02:17:29.522Z,29.33
2022-11-14T02:20:23.207Z,28.90
2022-11-14T02:23:12.689Z,27.85
2022-11-14T02:25:59.355Z,28.45
2022-11-14T02:28:45.156Z,29.05
2022-11-14T02:31:31.039Z,29.48
2022-11-14T02:34:20.230Z,28.67
2022-11-14T02:37:06.965Z,28.40
2022-11-14T02:39:53.009Z,29.73
2022-11-14T02:42:38.777Z,28.88
2022-11-14T02:45:25.186Z,27.13
2022-11-14T02:48:10.943Z,29.40
2022-11-14T02:50:56.927Z,28.45
2022-11-14T02:53:43.112Z,29.38
2022-11-14T02:56:28.814Z,31.45
2022-11-14T02:59:14.746Z,31.88
2022-11-14T03:02:02.904Z,31.20
2022-11-14T03:04:48.845Z,31.05
2022-11-14T03:07:34.595Z,31.83
2022-11-14T03:10:22.088Z,32.40
2022-11-14T03:13:07.920Z,28.63
2022-11-14T03:15:53.788Z,30.48
2022-11-14T03:18:39.901Z,32.33
2022-11-14T03:21:25.807Z,29.45
2022-11-14T03:24:11.599Z,32.00
2022-11-14T03:26:57.464Z,31.80
2022-11-14T03:29:42.961Z,30.67
2022-11-14T03:32:28.577Z,30.75
2022-11-14T03:35:14.210Z,31.05
2022-11-14T03:38:00.095Z,30.42
2022-11-14T03:40:45.940Z,31.42
2022-11-14T03:43:34.165Z,30.77
2022-11-14T03:46:20.514Z,29.13
2022-11-14T03:49:06.300Z,32.03
2022-11-14T03:51:52.310Z,29.83
2022-11-14T03:54:38.709Z,30.27
2022-11-14T03:57:24.624Z,30.20
2022-11-14T04:00:10.979Z,29.80
2022-11-14T04:02:57.858Z,29.85
2022-11-14T04:05:46.576Z,31.05
2022-11-14T04:08:33.282Z,31.02
2022-11-14T04:11:20.109Z,31.35
2022-11-14T04:14:05.885Z,29.98
2022-11-14T04:16:51.823Z,30.63
2022-11-14T04:19:37.965Z,29.55
2022-11-14T04:22:23.967Z,30.58
2022-11-14T04:25:10.374Z,29.65
2022-11-14T04:27:56.553Z,30.73
2022-11-14T04:30:42.700Z,28.80
2022-11-14T04:33:28.456Z,30.95
2022-11-14T04:36:14.245Z,31.08
2022-11-14T04:39:00.177Z,30.23
2022-11-14T04:41:46.090Z,30.52
2022-11-14T04:44:31.828Z,31.23
2022-11-14T04:47:18.158Z,31.58
2022-11-14T04:50:04.483Z,30.80
2022-11-14T04:52:54.099Z,31.85
2022-11-14T04:55:40.153Z,30.63
2022-11-14T04:58:26.888Z,32.17
2022-11-14T05:01:14.893Z,32.47
2022-11-14T05:04:00.968Z,32.53
2022-11-14T05:06:47.354Z,34.35
2022-11-14T05:09:33.022Z,34.22
2022-11-14T05:12:19.036Z,31.92
2022-11-14T05:15:05.316Z,32.72
2022-11-14T05:17:51.030Z,30.90
2022-11-14T05:20:37.136Z,33.83
2022-11-14T05:23:24.613Z,31.90
2022-11-14T05:26:12.916Z,33.67
2022-11-14T05:28:59.190Z,33.38
2022-11-14T05:31:45.028Z,31.45
2022-11-14T05:34:31.019Z,32.80
2022-11-14T05:37:16.903Z,34.67
2022-11-14T05:40:04.751Z,31.77
2022-11-14T05:42:50.491Z,32.13
2022-11-14T05:45:36.409Z,32.50
2022-11-14T05:48:22.213Z,33.70
2022-11-14T05:51:11.932Z,34.10
2022-11-14T05:53:58.134Z,31.95
2022-11-14T05:56:43.972Z,34.22
2022-11-14T05:59:29.818Z,36.55
2022-11-14T06:02:15.621Z,33.22
2022-11-14T06:05:01.422Z,33.97
2022-11-14T06:07:47.412Z,34.65
2022-11-14T06:10:35.824Z,33.72
2022-11-14T06:13:21.746Z,35.20
2022-11-14T06:16:11.345Z,34.08
2022-11-14T06:18:57.555Z,34.40
2022-11-14T06:21:43.525Z,33.10
2022-11-14T06:24:29.462Z,34.58
2022-11-14T06:27:15.226Z,34.83
2022-11-14T06:30:01.078Z,34.78
2022-11-14T06:32:47.297Z,36.63
2022-11-14T06:35:33.590Z,34.38
2022-11-14T06:38:19.664Z,35.28
2022-11-14T06:41:08.437Z,34.60
2022-11-14T06:43:55.154Z,33.72
2022-11-14T06:46:41.142Z,33.92
2022-11-14T06:49:28.070Z,35.72
2022-11-14T06:52:14.143Z,33.75
2022-11-14T06:55:00.350Z,35.60
2022-11-14T06:57:46.159Z,34.92
2022-11-14T07:00:32.342Z,33.20
2022-11-14T07:03:18.264Z,32.53
2022-11-14T07:06:05.509Z,35.33
2022-11-14T07:08:52.738Z,32.60
2022-11-14T07:11:38.505Z,32.45
2022-11-14T07:14:24.616Z,35.22
2022-11-14T07:17:10.359Z,32.95
2022-11-14T07:19:56.316Z,31.70
2022-11-14T07:22:42.399Z,32.28
2022-11-14T07:25:28.264Z,31.90
2022-11-14T07:28:14.106Z,31.85
2022-11-14T07:31:00.082Z,33.13
2022-11-14T07:33:46.198Z,32.67
2022-11-14T07:36:32.173Z,33.17
2022-11-14T07:39:18.124Z,34.83
2022-11-14T07:42:04.364Z,33.42
2022-11-14T07:44:50.526Z,33.22
2022-11-14T07:47:36.109Z,32.65
2022-11-14T07:50:21.894Z,30.60
2022-11-14T07:53:08.031Z,31.67
2022-11-14T07:55:53.659Z,32.28
2022-11-14T07:58:41.448Z,30.58
2022-11-14T08:01:28.066Z,32.10
2022-11-14T08:04:14.223Z,33.10
2022-11-14T08:07:00.321Z,31.00
2022-11-14T08:09:46.993Z,31.63
2022-11-14T08:12:33.713Z,31.38
2022-11-14T08:15:19.713Z,31.33
2022-11-14T08:18:06.154Z,32.58
2022-11-14T08:20:53.263Z,31.15
2022-11-14T08:23:39.835Z,33.97
2022-11-14T08:26:28.910Z,32.90
2022-11-14T08:29:17.555Z,32.15
2022-11-14T08:32:03.732Z,30.75
2022-11-14T08:34:50.092Z,31.85
2022-11-14T08:37:36.403Z,31.60
2022-11-14T08:40:23.433Z,30.95
2022-11-14T08:43:11.701Z,31.10
2022-11-14T08:46:03.143Z,30.83
2022-11-14T08:48:49.723Z,30.73
2022-11-14T08:51:36.631Z,30.27
2022-11-14T08:54:23.162Z,31.02
2022-11-14T08:57:09.613Z,33.58
2022-11-14T08:59:56.523Z,31.58
2022-11-14T09:02:42.922Z,29.90
2022-11-14T09:05:29.452Z,31.75
2022-11-14T09:08:16.961Z,32.17
2022-11-14T09:11:09.958Z,30.65
2022-11-14T09:13:56.583Z,30.80
2022-11-14T09:16:43.315Z,30.35
2022-11-14T09:19:29.732Z,32.53
2022-11-14T09:22:16.422Z,29.58
2022-11-14T09:25:03.778Z,28.88
2022-11-14T09:27:50.603Z,28.05
2022-11-14T09:30:37.913Z,27.58
2022-11-14T09:33:24.402Z,29.80
2022-11-14T09:36:16.253Z,28.30
2022-11-14T09:39:02.831Z,29.23
2022-11-14T09:41:57.922Z,28.77
2022-11-14T09:45:03.482Z,27.60
2022-11-14T09:47:55.152Z,30.05
2022-11-14T09:50:48.983Z,28.33
2022-11-14T09:53:45.771Z,28.15
2022-11-14T09:56:31.435Z,28.52
2022-11-14T09:59:17.696Z,28.92
2022-11-14T10:02:54.664Z,28.98
2022-11-14T10:05:40.571Z,30.58
2022-11-14T10:09:05.198Z,30.08
2022-11-14T10:12:16.640Z,30.10
2022-11-14T10:15:34.087Z,27.45
2022-11-14T10:18:43.976Z,27.80
2022-11-14T10:21:57.386Z,28.50
2022-11-14T10:24:51.230Z,29.65
2022-11-14T10:28:03.859Z,28.58
2022-11-14T10:31:24.594Z,28.20
2022-11-14T10:34:59.424Z,29.17
2022-11-14T10:37:57.724Z,29.95
2022-11-14T10:40:47.848Z,30.50
2022-11-14T10:43:42.394Z,30.13
2022-11-14T10:46:40.708Z,29.33
2022-11-14T10:49:27.058Z,31.02
2022-11-14T10:52:22.929Z,30.63
2022-11-14T10:55:17.898Z,30.52
2022-11-14T10:58:11.011Z,30.10
2022-11-14T11:00:57.012Z,30.15
2022-11-14T11:03:44.785Z,31.35
2022-11-14T11:06:30.518Z,30.70
2022-11-14T11:09:47.305Z,31.52
2022-11-14T11:13:05.661Z,29.55
2022-11-14T11:15:58.279Z,31.05
2022-11-14T11:18:47.308Z,30.38
2022-11-14T11:21:48.850Z,31.17
2022-11-14T11:24:38.477Z,31.55
2022-11-14T11:27:27.292Z,31.70
2022-11-14T11:30:23.469Z,30.33
2022-11-14T11:33:32.419Z,32.22
2022-11-14T11:36:20.826Z,29.73
2022-11-14T11:39:09.931Z,30.25
2022-11-14T11:42:14.016Z,32.42
2022-11-14T11:45:02.849Z,32.92
2022-11-14T11:48:22.852Z,31.02
2022-11-14T11:51:17.430Z,30.42
2022-11-14T11:54:21.076Z,30.45
2022-11-14T11:57:21.162Z,29.83
2022-11-14T12:00:16.537Z,32.47
2022-11-14T12:03:02.686Z,30.02
2022-11-14T12:05:57.374Z,30.70
2022-11-14T12:09:04.085Z,30.95
2022-11-14T12:12:01.702Z,30.65
2022-11-14T12:15:33.975Z,29.23
2022-11-14T12:18:41.350Z,29.95
2022-11-14T12:21:39.176Z,33.17
2022-11-14T12:24:25.053Z,33.33
2022-11-14T12:27:25.554Z,31.83
2022-11-14T12:30:22.090Z,32.15
2022-11-14T12:33:16.521Z,31.95
2022-11-14T12:36:06.691Z,32.50
2022-11-14T12:38:54.956Z,32.15
2022-11-14T12:41:42.052Z,32.00
2022-11-14T12:44:27.652Z,32.47
2022-11-14T12:47:17.284Z,32.67
2022-11-14T12:50:06.477Z,31.67
2022-11-14T12:52:55.090Z,33.23
2022-11-14T12:55:46.835Z,33.28
2022-11-14T12:58:47.349Z,34.10
2022-11-14T13:01:48.289Z,33.20
2022-11-14T13:04:43.168Z,36.22
2022-11-14T13:07:41.608Z,34.72
2022-11-14T13:10:33.450Z,34.15
2022-11-14T13:13:38.105Z,35.45
2022-11-14T13:16:45.063Z,34.50
2022-11-14T13:19:49.359Z,33.70
2022-11-14T13:22:45.124Z,32.90
2022-11-14T13:25:31.490Z,35.97
2022-11-14T13:28:38.914Z,35.03
2022-11-14T13:31:34.046Z,35.17
2022-11-14T13:34:45.197Z,36.67
2022-11-14T13:37:59.474Z,35.33
2022-11-14T13:41:07.316Z,36.63
2022-11-14T13:44:11.598Z,36.67
2022-11-14T13:47:03.966Z,37.70
2022-11-14T13:50:11.515Z,39.25
2022-11-14T13:52:57.913Z,38.28
2022-11-14T13:55:59.570Z,39.90
2022-11-14T13:59:10.513Z,36.13
2022-11-14T14:02:11.424Z,37.90
2022-11-14T14:05:02.754Z,37.83
2022-11-14T14:08:06.907Z,40.42
2022-11-14T14:11:42.743Z,37.25
2022-11-14T14:15:00.035Z,38.75
2022-11-14T14:18:02.239Z,40.25
2022-11-14T14:21:11.447Z,37.20
2022-11-14T14:24:04.191Z,40.05
2022-11-14T14:27:22.366Z,40.47
2022-11-14T14:30:10.525Z,39.33
2022-11-14T14:33:15.624Z,39.08
2022-11-14T14:36:01.855Z,38.75
2022-11-14T14:38:48.762Z,37.67
2022-11-14T14:41:35.811Z,37.10
2022-11-14T14:44:31.935Z,38.95
2022-11-14T14:47:35.740Z,39.45
2022-11-14T14:50:27.031Z,36.80
2022-11-14T14:53:28.448Z,36.95
2022-11-14T14:56:25.152Z,36.65
2022-11-14T14:59:23.788Z,39.55
2022-11-14T15:02:16.748Z,37.53
2022-11-14T15:05:03.155Z,40.53
2022-11-14T15:07:50.372Z,37.83
2022-11-14T15:10:37.329Z,36.83
2022-11-14T15:13:25.577Z,38.72
2022-11-14T15:16:12.113Z,39.60
2022-11-14T15:18:59.825Z,39.28
2022-11-14T15:21:45.974Z,38.97
2022-11-14T15:24:32.218Z,39.85
2022-11-14T15:27:20.781Z,40.35
2022-11-14T15:30:19.968Z,40.10
2022-11-14T15:33:07.432Z,41.90
2022-11-14T15:36:14.401Z,40.92
2022-11-14T15:39:22.100Z,45.33
2022-11-14T15:42:15.449Z,43.78
2022-11-14T15:45:01.225Z,42.28
2022-11-14T15:47:47.504Z,43.40
2022-11-14T15:50:35.531Z,41.80
2022-11-14T15:53:23.887Z,44.55
2022-11-14T15:56:16.190Z,42.88
2022-11-14T15:59:01.897Z,44.00
2022-11-14T16:01:55.225Z,41.47
2022-11-14T16:04:47.103Z,43.40
2022-11-14T16:07:33.581Z,42.05
2022-11-14T16:10:23.406Z,42.00
2022-11-14T16:13:11.360Z,43.45
2022-11-14T16:15:57.307Z,43.80
2022-11-14T16:18:43.012Z,44.75
2022-11-14T16:21:28.832Z,42.95
2022-11-14T16:24:23.162Z,41.35
2022-11-14T16:27:09.894Z,41.30
2022-11-14T16:29:55.610Z,39.78
2022-11-14T16:32:46.533Z,43.30
2022-11-14T16:35:32.357Z,42.80
2022-11-14T16:38:17.957Z,44.50
2022-11-14T16:41:08.355Z,42.65
2022-11-14T16:43:58.134Z,44.05
2022-11-14T16:46:45.774Z,42.58
2022-11-14T16:49:31.509Z,46.03
2022-11-14T16:52:17.701Z,43.25
2022-11-14T16:55:03.697Z,45.35
2022-11-14T16:57:49.683Z,46.15
2022-11-14T17:00:36.091Z,45.33
2022-11-14T17:03:22.626Z,43.45
2022-11-14T17:06:10.805Z,45.70
2022-11-14T17:08:58.094Z,45.47
2022-11-14T17:11:44.886Z,50.20
2022-11-14T17:14:31.529Z,46.28
2022-11-14T17:17:17.361Z,43.60
2022-11-14T17:20:03.526Z,44.03
2022-11-14T17:22:49.456Z,45.35
2022-11-14T17:25:35.540Z,46.63
2022-11-14T17:28:22.015Z,44.53
2022-11-14T17:31:09.172Z,44.70
2022-11-14T17:33:57.186Z,46.97
2022-11-14T17:36:43.446Z,49.15
2022-11-14T17:39:30.326Z,49.00
2022-11-14T17:42:17.055Z,45.35
2022-11-14T17:45:03.664Z,48.63
2022-11-14T17:47:49.893Z,54.28
2022-11-14T17:50:40.659Z,47.50
2022-11-14T17:53:27.593Z,50.90
2022-11-14T17:56:19.936Z,50.38
2022-11-14T17:59:06.397Z,47.03
2022-11-14T18:01:55.413Z,49.92
2022-11-14T18:04:41.864Z,51.13
2022-11-14T18:07:31.001Z,47.63
2022-11-14T18:10:18.174Z,48.92
2022-11-14T18:13:05.679Z,45.45
2022-11-14T18:15:51.754Z,42.88
2022-11-14T18:18:38.783Z,43.53
2022-11-14T18:21:26.088Z,42.47
2022-11-14T18:24:15.633Z,41.05
2022-11-14T18:27:02.624Z,41.33
2022-11-14T18:29:49.232Z,39.97
2022-11-14T18:32:35.933Z,41.05
2022-11-14T18:35:22.284Z,43.58
2022-11-14T18:38:08.833Z,44.63
2022-11-14T18:40:57.483Z,41.60
2022-11-14T18:43:47.825Z,45.03
2022-11-14T18:46:37.391Z,44.65
2022-11-14T18:49:24.290Z,43.65
2022-11-14T18:52:16.939Z,40.90
2022-11-14T18:55:05.702Z,45.78
2022-11-14T18:57:53.297Z,44.10
2022-11-14T19:00:39.693Z,44.72
2022-11-14T19:03:26.324Z,44.75
2022-11-14T19:06:13.805Z,45.05
2022-11-14T19:09:05.591Z,45.85
2022-11-14T19:12:26.973Z,43.97
2022-11-14T19:15:13.903Z,44.55
2022-11-14T19:18:00.365Z,49.03
2022-11-14T19:20:58.192Z,46.40
2022-11-14T19:23:44.914Z,42.70
2022-11-14T19:26:31.793Z,42.45
2022-11-14T19:29:18.338Z,44.58
2022-11-14T19:32:06.044Z,44.45
2022-11-14T19:34:52.353Z,44.58
2022-11-14T19:37:38.413Z,43.30
2022-11-14T19:40:26.683Z,44.30
2022-11-14T19:43:12.643Z,44.72
2022-11-14T19:46:05.945Z,44.42
2022-11-14T19:49:03.333Z,42.13
2022-11-14T19:51:50.914Z,44.15
2022-11-14T19:54:37.203Z,42.83
2022-11-14T19:57:23.973Z,44.55
2022-11-14T20:00:10.565Z,42.17
2022-11-14T20:02:57.074Z,44.22
2022-11-14T20:05:43.355Z,43.88
2022-11-14T20:08:29.955Z,42.42
2022-11-14T20:11:16.154Z,44.72
2022-11-14T20:14:03.324Z,46.30
2022-11-14T20:16:49.466Z,46.47
2022-11-14T20:19:35.923Z,43.47
2022-11-14T20:22:22.174Z,45.55
2022-11-14T20:25:09.353Z,46.75
2022-11-14T20:27:55.807Z,43.70
2022-11-14T20:30:42.523Z,45.35
2022-11-14T20:33:30.231Z,43.38
2022-11-14T20:36:20.213Z,44.78
2022-11-14T20:39:06.573Z,45.65
2022-11-14T20:41:53.353Z,44.95
2022-11-14T20:44:39.973Z,47.03
2022-11-14T20:47:28.203Z,41.65
2022-11-14T20:50:15.902Z,46.85
2022-11-14T20:53:02.123Z,43.65
2022-11-14T20:55:54.313Z,44.35
2022-11-14T20:58:42.234Z,43.65
2022-11-14T21:01:28.904Z,44.08
2022-11-14T21:04:16.354Z,44.75
2022-11-14T21:07:02.887Z,48.85
2022-11-14T21:09:49.733Z,44.08
2022-11-14T21:12:36.373Z,46.13
2022-11-14T21:15:22.975Z,45.10
2022-11-14T21:18:09.464Z,45.88
2022-11-14T21:21:05.323Z,44.78
2022-11-14T21:23:52.404Z,45.17
2022-11-14T21:26:40.345Z,45.67
2022-11-14T21:29:27.863Z,46.13
2022-11-14T21:32:14.154Z,44.28
2022-11-14T21:35:03.378Z,44.38
2022-11-14T21:37:53.204Z,42.28
2022-11-14T21:40:39.353Z,45.22
2022-11-14T21:43:25.783Z,40.85
2022-11-14T21:46:17.953Z,42.67
2022-11-14T21:49:04.565Z,42.53
2022-11-14T21:51:51.443Z,43.97
2022-11-14T21:54:38.124Z,42.72
2022-11-14T21:57:24.913Z,47.33
2022-11-14T22:00:12.333Z,45.05
2022-11-14T22:03:18.804Z,42.88
2022-11-14T22:06:05.783Z,46.00
2022-11-14T22:08:56.444Z,44.75
2022-11-14T22:11:42.984Z,44.65
2022-11-14T22:14:29.902Z,45.08
2022-11-14T22:17:15.873Z,41.28
2022-11-14T22:20:02.259Z,42.35
2022-11-14T22:22:48.672Z,42.88
2022-11-14T22:25:34.824Z,44.33
2022-11-14T22:28:21.053Z,43.47
2022-11-14T22:31:10.133Z,43.75
2022-11-14T22:33:58.440Z,41.75
2022-11-14T22:36:44.642Z,44.33
2022-11-14T22:39:30.813Z,45.20
2022-11-14T22:42:17.113Z,44.05
2022-11-14T22:45:03.734Z,42.72
2022-11-14T22:47:50.263Z,44.42
2022-11-14T22:50:36.774Z,46.60
2022-11-14T22:53:23.554Z,45.88
2022-11-14T22:56:12.197Z,46.20
2022-11-14T22:59:01.643Z,46.97
2022-11-14T23:01:48.543Z,45.85
2022-11-14T23:04:35.243Z,45.20
2022-11-14T23:07:21.179Z,46.63
2022-11-14T23:10:09.117Z,48.22
2022-11-14T23:12:55.197Z,49.05
2022-11-14T23:15:47.918Z,45.70
2022-11-14T23:18:35.044Z,42.63
2022-11-14T23:21:25.095Z,45.45
2022-11-14T23:24:14.835Z,44.28
2022-11-14T23:27:01.039Z,46.55
2022-11-14T23:29:46.834Z,45.38
2022-11-14T23:32:32.618Z,47.15
2022-11-14T23:35:18.806Z,47.60
2022-11-14T23:38:05.121Z,50.50
2022-11-14T23:40:55.860Z,47.70
2022-11-14T23:43:41.789Z,45.30
2022-11-14T23:46:27.824Z,44.60
2022-11-14T23:49:13.604Z,48.92
2022-11-14T23:51:59.385Z,47.38
2022-11-14T23:54:45.346Z,46.47
2022-11-14T23:57:31.554Z,46.92
